Aérodrome :
LOGIN :

S'inscrire | Disclaimer

   EN    FR    IT 

 










Légende :    VFR   VFR Marginal   IFR   IFR Intensif   IFR Très Intensif
Visi : 
Plafond : 
>= 8 km
>= 3000ft
5 à 8 km
1000 à 3000 ft
1500m à 5 km
500 à 1000 ft
800 à 1500m
200 à 500 ft
< 800m
< 200 ft
Symboles :   Orages  Brouillard  Fortes neiges  Fortes précipitations  Vent > 20 kt
SIGMETs :   Divers  Orages  Givrage  Turbulence  Onde Orograph.  Cendres Volcan.






- Altitude de l'aérodrome : 322 ft


LHSN - Szolnok

DERNIER METAR :
  • 291715Z 27006KT 240V300 CAVOK 03/02 Q1010 NOSIG RMK BLU

METARs EXPIRÉS :
  • 291645Z 28010KT 9999 SCT040 03/02 Q1010 NOSIG RMK BLU
  • 291615Z 26010KT 230V300 9999 FEW020 BKN045 04/01 Q1010 NOSIG RMK BLU
  • 291545Z 26006KT 230V300 9999 FEW045 BKN060 04/02 Q1009 NOSIG RMK BLU
  • 291515Z 26008KT 230V290 9999 FEW040 BKN060 04/02 Q1009 NOSIG RMK BLU
  • 291445Z 27006KT 230V290 9999 SCT040 BKN060 04/03 Q1009 RESHRA NOSIG RMK BLU

TAF TAF LHSN
Valide du 29 à 18h jusqu'au 30 à 03h UTC


291715Z 2918/3003 25007KT CAVOK
TEMPO 2923/3003 28010KT 4000 SHSNRA SHSN SCT008TCU BKN015



MET'MAP, la Météo Aéronautique d'un coup d'oeil ! - Copyright ORBIFLY Décembre 2007 - Disclaimer

ORBIFLY MET'MAP TEAM :

Programmation & Développement : Alexandra Zaïnal
Sur une idée originale de : Baudouin d'Aumeries
Assistance à la programmation : Marc-Olivier Méhu
Soutien technique & logistique : Manuel Goepfert

Contact : metmap@orbifly.com




SOURCES & CREDITS :

   NOAA